createdAt,value
2023-03-21T00:00:28.998Z,100216.63
2023-03-21T00:02:55.565Z,100220.44
2023-03-21T00:05:22.479Z,100210.75
2023-03-21T00:07:49.081Z,100216.63
2023-03-21T00:10:23.923Z,100209.88
2023-03-21T00:12:56.337Z,100207.69
2023-03-21T00:15:24.988Z,100200.81
2023-03-21T00:17:57.582Z,100214.66
2023-03-21T00:20:24.244Z,100212.72
2023-03-21T00:22:50.698Z,100219.81
2023-03-21T00:25:17.234Z,100212.94
2023-03-21T00:27:57.232Z,100227.91
2023-03-21T00:30:30.000Z,100226.69
2023-03-21T00:32:57.017Z,100222.00
2023-03-21T00:36:06.450Z,100218.72
2023-03-21T00:38:10.623Z,100218.81
2023-03-21T00:40:40.839Z,100216.72
2023-03-21T00:43:16.118Z,100212.94
2023-03-21T00:45:42.794Z,100195.75
2023-03-21T00:48:09.774Z,100189.63
2023-03-21T00:50:37.392Z,100191.13
2023-03-21T00:53:03.877Z,100203.75
2023-03-21T00:55:30.373Z,100208.28
2023-03-21T00:58:02.172Z,100213.56
2023-03-21T01:00:29.590Z,100211.63
2023-03-21T01:03:02.666Z,100216.50
2023-03-21T01:05:42.461Z,100214.44
2023-03-21T01:08:22.989Z,100219.44
2023-03-21T01:10:52.671Z,100215.75
2023-03-21T01:13:20.306Z,100223.63
2023-03-21T01:15:57.473Z,100219.31
2023-03-21T01:18:27.720Z,100212.94
2023-03-21T01:20:56.062Z,100215.28
2023-03-21T01:23:22.845Z,100208.78
2023-03-21T01:25:50.930Z,100194.53
2023-03-21T01:28:17.411Z,100196.53
2023-03-21T01:30:48.826Z,100201.44
2023-03-21T01:33:16.320Z,100192.47
2023-03-21T01:35:51.625Z,100204.00
2023-03-21T01:38:21.817Z,100193.69
2023-03-21T01:40:49.884Z,100204.97
2023-03-21T01:43:21.680Z,100198.34
2023-03-21T01:46:10.629Z,100191.00
2023-03-21T01:48:41.974Z,100195.66
2023-03-21T01:51:12.356Z,100177.28
2023-03-21T01:53:40.753Z,100181.44
2023-03-21T01:56:42.653Z,100174.59
2023-03-21T01:59:14.227Z,100174.72
2023-03-21T02:01:41.136Z,100182.44
2023-03-21T02:04:08.096Z,100183.31
2023-03-21T02:06:51.851Z,100180.34
2023-03-21T02:09:22.564Z,100174.09
2023-03-21T02:11:49.350Z,100169.66
2023-03-21T02:14:27.001Z,100176.31
2023-03-21T02:17:24.098Z,100175.44
2023-03-21T02:20:05.107Z,100170.28
2023-03-21T02:22:31.519Z,100179.94
2023-03-21T02:25:21.749Z,100177.00
2023-03-21T02:28:00.580Z,100183.13
2023-03-21T02:31:13.797Z,100175.75
2023-03-21T02:33:57.426Z,100181.50
2023-03-21T02:36:48.395Z,100170.00
2023-03-21T02:39:19.463Z,100171.59
2023-03-21T02:41:52.222Z,100170.59
2023-03-21T02:44:41.612Z,100169.03
2023-03-21T02:47:14.965Z,100178.91
2023-03-21T02:50:10.430Z,100173.78
2023-03-21T02:52:39.819Z,100170.22
2023-03-21T02:55:14.564Z,100174.22
2023-03-21T02:57:44.416Z,100177.78
2023-03-21T03:00:17.517Z,100178.28
2023-03-21T03:02:44.787Z,100171.28
2023-03-21T03:05:21.354Z,100164.44
2023-03-21T03:07:48.229Z,100164.56
2023-03-21T03:10:44.029Z,100160.63
2023-03-21T03:13:16.435Z,100168.44
2023-03-21T03:15:56.800Z,100172.31
2023-03-21T03:18:29.298Z,100174.50
2023-03-21T03:21:07.950Z,100169.31
2023-03-21T03:23:34.349Z,100174.31
2023-03-21T03:26:17.902Z,100165.28
2023-03-21T03:28:52.714Z,100167.09
2023-03-21T03:31:24.215Z,100166.63
2023-03-21T03:33:54.488Z,100159.09
2023-03-21T03:36:32.038Z,100155.66
2023-03-21T03:39:02.296Z,100162.88
2023-03-21T03:41:31.875Z,100162.34
2023-03-21T03:44:03.556Z,100167.34
2023-03-21T03:46:31.993Z,100172.84
2023-03-21T03:49:04.985Z,100170.69
2023-03-21T03:51:39.076Z,100167.63
2023-03-21T03:54:11.143Z,100164.81
2023-03-21T03:56:38.119Z,100167.38
2023-03-21T03:59:05.512Z,100160.28
2023-03-21T04:01:32.073Z,100160.69
2023-03-21T04:04:11.943Z,100162.06
2023-03-21T04:06:39.122Z,100171.22
2023-03-21T04:09:17.132Z,100166.19
2023-03-21T04:11:46.277Z,100169.63
2023-03-21T04:14:12.865Z,100168.88
2023-03-21T04:16:39.354Z,100166.44
2023-03-21T04:19:05.894Z,100171.47
2023-03-21T04:21:32.577Z,100167.19
2023-03-21T04:23:59.069Z,100178.88
2023-03-21T04:26:25.775Z,100169.00
2023-03-21T04:28:52.241Z,100172.44
2023-03-21T04:31:25.472Z,100173.91
2023-03-21T04:33:52.607Z,100172.09
2023-03-21T04:36:19.254Z,100180.00
2023-03-21T04:38:45.739Z,100179.25
2023-03-21T04:41:12.225Z,100183.13
2023-03-21T04:43:38.701Z,100192.81
2023-03-21T04:46:05.450Z,100196.38
2023-03-21T04:48:31.951Z,100201.63
2023-03-21T04:50:58.412Z,100197.22
2023-03-21T04:53:24.862Z,100201.88
2023-03-21T04:55:54.889Z,100195.44
2023-03-21T04:58:21.853Z,100205.63
2023-03-21T05:00:48.358Z,100219.66
2023-03-21T05:03:14.879Z,100209.09
2023-03-21T05:05:41.294Z,100219.53
2023-03-21T05:08:07.764Z,100219.06
2023-03-21T05:10:34.267Z,100219.81
2023-03-21T05:13:00.758Z,100218.72
2023-03-21T05:15:27.262Z,100221.31
2023-03-21T05:17:53.757Z,100220.47
2023-03-21T05:20:20.187Z,100219.47
2023-03-21T05:22:46.614Z,100226.47
2023-03-21T05:25:13.368Z,100215.72
2023-03-21T05:27:40.134Z,100216.41
2023-03-21T05:30:16.521Z,100209.47
2023-03-21T05:32:43.083Z,100209.91
2023-03-21T05:35:10.333Z,100214.69
2023-03-21T05:37:36.892Z,100217.19
2023-03-21T05:40:04.102Z,100206.59
2023-03-21T05:42:30.577Z,100209.31
2023-03-21T05:44:57.018Z,100218.03
2023-03-21T05:47:23.508Z,100210.72
2023-03-21T05:49:49.990Z,100219.66
2023-03-21T05:52:16.823Z,100216.25
2023-03-21T05:54:43.371Z,100218.72
2023-03-21T05:57:10.160Z,100207.06
2023-03-21T05:59:36.840Z,100209.13
2023-03-21T06:02:03.910Z,100208.16
2023-03-21T06:04:30.597Z,100201.44
2023-03-21T06:06:57.336Z,100206.94
2023-03-21T06:09:24.200Z,100211.22
2023-03-21T06:11:52.892Z,100212.56
2023-03-21T06:14:20.470Z,100213.28
2023-03-21T06:16:46.970Z,100207.84
2023-03-21T06:19:14.079Z,100210.78
2023-03-21T06:21:40.747Z,100215.31
2023-03-21T06:24:07.373Z,100212.72
2023-03-21T06:26:33.901Z,100209.16
2023-03-21T06:29:00.435Z,100211.94
2023-03-21T06:31:26.939Z,100199.22
2023-03-21T06:33:53.632Z,100206.25
2023-03-21T06:36:20.508Z,100202.66
2023-03-21T06:38:47.006Z,100208.81
2023-03-21T06:41:13.643Z,100201.72
2023-03-21T06:43:40.118Z,100210.03
2023-03-21T06:46:06.591Z,100210.50
2023-03-21T06:48:33.235Z,100210.97
2023-03-21T06:50:59.706Z,100203.66
2023-03-21T06:53:26.392Z,100210.00
2023-03-21T06:55:54.453Z,100214.28
2023-03-21T06:58:22.097Z,100211.38
2023-03-21T07:00:49.106Z,100209.34
2023-03-21T07:03:15.818Z,100209.16
2023-03-21T07:05:42.789Z,100207.53
2023-03-21T07:08:09.395Z,100212.25
2023-03-21T07:10:39.274Z,100214.84
2023-03-21T07:13:06.162Z,100209.56
2023-03-21T07:15:32.976Z,100217.59
2023-03-21T07:17:59.430Z,100210.75
2023-03-21T07:20:26.148Z,100217.03
2023-03-21T07:22:52.881Z,100217.81
2023-03-21T07:25:19.405Z,100224.75
2023-03-21T07:27:46.475Z,100227.63
2023-03-21T07:30:14.008Z,100224.91
2023-03-21T07:32:40.702Z,100216.31
2023-03-21T07:35:10.648Z,100230.41
2023-03-21T07:37:38.235Z,100225.53
2023-03-21T07:40:05.263Z,100224.19
2023-03-21T07:44:59.066Z,100217.19
2023-03-21T07:47:25.526Z,100218.00
2023-03-21T07:49:51.976Z,100209.47
2023-03-21T07:52:18.456Z,100210.59
2023-03-21T07:54:44.912Z,100208.53
2023-03-21T07:57:13.546Z,100193.75
2023-03-21T07:59:40.204Z,100195.44
2023-03-21T08:02:07.030Z,100198.22
2023-03-21T08:04:34.162Z,100197.09
2023-03-21T08:07:00.581Z,100190.19
2023-03-21T08:09:27.023Z,100185.38
2023-03-21T08:11:53.545Z,100181.19
2023-03-21T08:14:20.033Z,100183.09
2023-03-21T08:16:46.568Z,100180.59
2023-03-21T08:19:13.071Z,100175.59
2023-03-21T08:21:39.534Z,100175.81
2023-03-21T08:24:06.169Z,100186.38
2023-03-21T08:26:33.097Z,100193.97
2023-03-21T08:29:00.020Z,100172.59
2023-03-21T08:31:26.600Z,100175.25
2023-03-21T08:33:53.106Z,100169.38
2023-03-21T08:36:19.734Z,100175.84
2023-03-21T08:38:46.219Z,100171.59
2023-03-21T08:41:12.715Z,100161.63
2023-03-21T08:43:39.189Z,100153.56
2023-03-21T08:46:06.037Z,100155.50
2023-03-21T08:48:32.777Z,100151.38
2023-03-21T08:51:02.408Z,100160.63
2023-03-21T08:53:28.922Z,100152.84
2023-03-21T08:55:55.501Z,100145.50
2023-03-21T08:58:22.998Z,100149.75
2023-03-21T09:00:49.751Z,100149.72
2023-03-21T09:03:16.467Z,100140.81
2023-03-21T09:05:42.990Z,100147.59
2023-03-21T09:08:09.461Z,100135.19
2023-03-21T09:10:35.914Z,100133.72
2023-03-21T09:13:02.381Z,100133.78
2023-03-21T09:15:28.885Z,100132.75
2023-03-21T09:17:56.335Z,100126.13
2023-03-21T09:20:24.912Z,100127.06
2023-03-21T09:22:52.168Z,100123.09
2023-03-21T09:25:19.006Z,100123.47
2023-03-21T09:27:46.090Z,100112.00
2023-03-21T09:30:14.306Z,100115.09
2023-03-21T09:32:40.794Z,100109.00
2023-03-21T09:35:07.594Z,100103.50
2023-03-21T09:37:34.306Z,100102.19
2023-03-21T09:40:00.660Z,100105.38
2023-03-21T09:42:35.626Z,100105.34
2023-03-21T09:45:12.593Z,100106.00
2023-03-21T09:47:45.564Z,100094.47
2023-03-21T09:50:19.669Z,100099.66
2023-03-21T09:52:56.948Z,100096.38
2023-03-21T09:55:25.671Z,100092.50
2023-03-21T09:58:23.841Z,100079.50
2023-03-21T10:00:54.229Z,100072.06
2023-03-21T10:03:24.827Z,100071.00
2023-03-21T10:05:52.971Z,100061.84
2023-03-21T10:08:26.902Z,100065.91
2023-03-21T10:10:58.249Z,100067.59
2023-03-21T10:13:29.224Z,100067.41
2023-03-21T10:16:02.385Z,100064.44
2023-03-21T10:18:31.321Z,100057.91
2023-03-21T10:20:58.125Z,100057.47
2023-03-21T10:23:29.400Z,100059.41
2023-03-21T10:25:59.774Z,100056.97
2023-03-21T10:28:46.026Z,100059.88
2023-03-21T10:31:21.464Z,100056.78
2023-03-21T10:33:50.585Z,100046.66
2023-03-21T10:36:26.872Z,100050.91
2023-03-21T10:38:58.303Z,100041.97
2023-03-21T10:41:24.771Z,100031.38
2023-03-21T10:44:16.697Z,100035.63
2023-03-21T10:46:54.815Z,100040.72
2023-03-21T10:49:22.295Z,100034.28
2023-03-21T10:51:55.249Z,100039.75
2023-03-21T10:54:22.556Z,100032.94
2023-03-21T10:56:57.964Z,100030.44
2023-03-21T10:59:26.351Z,100024.72
2023-03-21T11:01:56.438Z,100023.88
2023-03-21T11:04:27.380Z,100015.94
2023-03-21T11:06:57.410Z,100018.88
2023-03-21T11:09:28.367Z,100020.63
2023-03-21T11:12:02.988Z,100012.59
2023-03-21T11:14:38.387Z,100005.06
2023-03-21T11:17:20.420Z,100004.38
2023-03-21T11:19:58.283Z,100007.53
2023-03-21T11:22:46.120Z,100005.78
2023-03-21T11:25:31.798Z,100000.25
2023-03-21T11:28:04.946Z,99993.81
2023-03-21T11:30:31.493Z,99998.97
2023-03-21T11:33:02.337Z,99987.84
2023-03-21T11:35:37.603Z,99983.72
2023-03-21T11:38:05.329Z,99981.56
2023-03-21T11:40:37.108Z,99978.22
2023-03-21T11:43:18.653Z,99975.00
2023-03-21T11:45:58.637Z,99971.19
2023-03-21T11:48:25.830Z,99971.44
2023-03-21T11:51:00.647Z,99969.63
2023-03-21T11:54:08.471Z,99970.13
2023-03-21T11:56:41.014Z,99960.88
2023-03-21T11:59:23.248Z,99955.69
2023-03-21T12:02:33.096Z,99957.28
2023-03-21T12:05:17.352Z,99950.91
2023-03-21T12:07:52.570Z,99949.28
2023-03-21T12:10:32.754Z,99945.28
2023-03-21T12:13:33.368Z,99942.75
2023-03-21T12:16:30.903Z,99943.81
2023-03-21T12:19:00.117Z,99932.44
2023-03-21T12:22:01.918Z,99931.78
2023-03-21T12:24:50.299Z,99928.84
2023-03-21T12:27:25.749Z,99924.19
2023-03-21T12:30:34.037Z,99932.03
2023-03-21T12:33:06.249Z,99915.06
2023-03-21T12:35:59.510Z,99913.81
2023-03-21T12:38:40.458Z,99915.50
2023-03-21T12:41:28.395Z,99914.88
2023-03-21T12:44:03.179Z,99910.81
2023-03-21T12:46:57.051Z,99912.88
2023-03-21T12:49:46.861Z,99906.94
2023-03-21T12:52:25.625Z,99901.84
2023-03-21T12:54:57.484Z,99902.28
2023-03-21T12:57:32.635Z,99898.06
2023-03-21T13:00:17.485Z,99899.06
2023-03-21T13:02:51.888Z,99901.47
2023-03-21T13:05:33.540Z,99890.66
2023-03-21T13:08:18.054Z,99892.19
2023-03-21T13:10:45.626Z,99898.13
2023-03-21T13:13:22.636Z,99896.66
2023-03-21T13:16:18.512Z,99888.84
2023-03-21T13:19:09.503Z,99894.56
2023-03-21T13:21:51.148Z,99893.06
2023-03-21T13:24:17.528Z,99898.34
2023-03-21T13:26:49.484Z,99891.09
2023-03-21T13:29:23.738Z,99901.84
2023-03-21T13:31:54.600Z,99893.31
2023-03-21T13:34:24.146Z,99902.53
2023-03-21T13:36:52.202Z,99900.53
2023-03-21T13:39:28.921Z,99904.91
2023-03-21T13:41:55.500Z,99906.00
2023-03-21T13:44:21.861Z,99901.09
2023-03-21T13:46:59.991Z,99900.47
2023-03-21T13:49:29.868Z,99900.34
2023-03-21T13:51:58.808Z,99904.69
2023-03-21T13:54:45.323Z,99896.66
2023-03-21T13:57:41.054Z,99892.47
2023-03-21T14:00:22.096Z,99888.22
2023-03-21T14:02:59.569Z,99892.22
2023-03-21T14:05:27.951Z,99891.56
2023-03-21T14:08:27.767Z,99896.56
2023-03-21T14:11:07.736Z,99884.69
2023-03-21T14:13:38.111Z,99878.44
2023-03-21T14:16:18.971Z,99889.72
2023-03-21T14:18:56.124Z,99883.16
2023-03-21T14:21:28.780Z,99886.19
2023-03-21T14:24:04.021Z,99890.41
2023-03-21T14:26:34.085Z,99892.88
2023-03-21T14:29:05.511Z,99893.28
2023-03-21T14:31:34.124Z,99887.66
2023-03-21T14:34:02.376Z,99893.34
2023-03-21T14:36:32.818Z,99887.00
2023-03-21T14:39:15.749Z,99896.97
2023-03-21T14:41:54.777Z,99881.13
2023-03-21T14:44:25.319Z,99895.69
2023-03-21T14:47:06.515Z,99887.53
2023-03-21T14:49:36.887Z,99888.31
2023-03-21T14:52:26.133Z,99879.53
2023-03-21T14:54:53.501Z,99884.81
2023-03-21T14:57:24.045Z,99886.94
2023-03-21T14:59:53.677Z,99879.94
2023-03-21T15:02:22.623Z,99871.44
2023-03-21T15:04:52.600Z,99878.44
2023-03-21T15:07:25.324Z,99876.25
2023-03-21T15:09:57.936Z,99869.09
2023-03-21T15:12:24.441Z,99881.47
2023-03-21T15:14:51.295Z,99877.03
2023-03-21T15:17:19.280Z,99876.75
2023-03-21T15:19:45.868Z,99878.38
2023-03-21T15:22:33.754Z,99879.13
2023-03-21T15:25:07.566Z,99870.84
2023-03-21T15:27:38.614Z,99873.97
2023-03-21T15:30:06.584Z,99872.16
2023-03-21T15:32:36.309Z,99863.69
2023-03-21T15:35:15.771Z,99872.44
2023-03-21T15:37:42.636Z,99866.22
2023-03-21T15:40:15.375Z,99872.06
2023-03-21T15:42:42.116Z,99864.31
2023-03-21T15:45:28.894Z,99876.00
2023-03-21T15:48:01.301Z,99866.66
2023-03-21T15:50:46.506Z,99875.81
2023-03-21T15:53:18.786Z,99880.59
2023-03-21T15:55:51.627Z,99880.31
2023-03-21T15:58:21.526Z,99884.44
2023-03-21T16:00:52.788Z,99882.47
2023-03-21T16:03:32.461Z,99883.00
2023-03-21T16:06:11.354Z,99878.13
2023-03-21T16:08:45.540Z,99883.91
2023-03-21T16:11:28.599Z,99879.38
2023-03-21T16:13:56.316Z,99879.47
2023-03-21T16:16:28.003Z,99884.06
2023-03-21T16:18:55.932Z,99881.69
2023-03-21T16:21:25.593Z,99884.31
2023-03-21T16:23:52.696Z,99882.31
2023-03-21T16:26:25.505Z,99883.84
2023-03-21T16:28:52.150Z,99887.97
2023-03-21T16:31:21.489Z,99884.78
2023-03-21T16:33:48.402Z,99890.28
2023-03-21T16:36:17.868Z,99892.53
2023-03-21T16:38:48.326Z,99896.66
2023-03-21T16:41:15.639Z,99892.94
2023-03-21T16:43:43.624Z,99895.84
2023-03-21T16:46:17.121Z,99896.75
2023-03-21T16:48:45.686Z,99897.28
2023-03-21T16:51:18.003Z,99896.78
2023-03-21T16:53:45.763Z,99895.44
2023-03-21T16:56:58.617Z,99897.16
2023-03-21T16:59:25.262Z,99896.69
2023-03-21T17:01:51.710Z,99905.25
2023-03-21T17:04:18.617Z,99901.72
2023-03-21T17:06:45.030Z,99904.31
2023-03-21T17:09:16.419Z,99902.41
2023-03-21T17:11:43.591Z,99902.44
2023-03-21T17:14:11.836Z,99906.56
2023-03-21T17:16:39.161Z,99898.84
2023-03-21T17:19:22.353Z,99899.91
2023-03-21T17:21:48.769Z,99902.81
2023-03-21T17:24:15.367Z,99906.53
2023-03-21T17:26:41.938Z,99912.00
2023-03-21T17:29:13.128Z,99908.94
2023-03-21T17:31:39.618Z,99907.59
2023-03-21T17:34:06.169Z,99909.81
2023-03-21T17:36:38.130Z,99911.00
2023-03-21T17:39:07.308Z,99915.28
2023-03-21T17:41:33.754Z,99917.69
2023-03-21T17:44:00.466Z,99920.06
2023-03-21T17:46:28.190Z,99911.03
2023-03-21T17:48:55.190Z,99915.47
2023-03-21T17:51:21.686Z,99922.81
2023-03-21T17:53:49.986Z,99922.97
2023-03-21T17:56:21.796Z,99926.88
2023-03-21T17:58:49.157Z,99923.28
2023-03-21T18:01:15.677Z,99920.56
2023-03-21T18:03:42.197Z,99930.72
2023-03-21T18:06:15.146Z,99928.16
2023-03-21T18:08:41.785Z,99936.28
2023-03-21T18:11:09.114Z,99930.66
2023-03-21T18:13:35.888Z,99935.06
2023-03-21T18:16:02.660Z,99931.47
2023-03-21T18:18:29.199Z,99930.66
2023-03-21T18:20:57.953Z,99941.19
2023-03-21T18:23:25.420Z,99928.56
2023-03-21T18:25:52.662Z,99931.25
2023-03-21T18:28:21.228Z,99934.16
2023-03-21T18:33:37.222Z,99934.09
2023-03-21T18:36:07.535Z,99937.31
2023-03-21T18:38:35.255Z,99931.50
2023-03-21T18:41:01.767Z,99932.69
2023-03-21T18:46:15.546Z,99928.75
2023-03-21T18:48:41.976Z,99943.69
2023-03-21T18:51:08.471Z,99944.72
2023-03-21T18:53:34.912Z,99948.44
2023-03-21T18:56:02.007Z,99947.97
2023-03-21T18:58:28.526Z,99951.53
2023-03-21T19:00:57.484Z,99938.78
2023-03-21T19:03:35.661Z,99949.13
2023-03-21T19:06:04.030Z,99952.34
2023-03-21T19:08:30.900Z,99946.16
2023-03-21T19:11:00.211Z,99947.34
2023-03-21T19:13:30.105Z,99950.91
2023-03-21T19:15:56.918Z,99947.03
2023-03-21T19:18:41.450Z,99960.84
2023-03-21T19:21:10.263Z,99947.66
2023-03-21T19:24:11.765Z,99954.81
2023-03-21T19:26:27.434Z,99943.72
2023-03-21T19:28:55.003Z,99953.22
2023-03-21T19:31:22.752Z,99953.22
2023-03-21T19:33:49.512Z,99949.34
2023-03-21T19:36:21.944Z,99955.09
2023-03-21T19:38:49.134Z,99949.34
2023-03-21T19:41:15.777Z,99948.97
2023-03-21T19:43:53.200Z,99944.06
2023-03-21T19:46:21.176Z,99949.59
2023-03-21T19:48:47.673Z,99952.53
2023-03-21T19:51:27.558Z,99956.97
2023-03-21T19:53:54.548Z,99947.63
2023-03-21T19:56:24.620Z,99953.22
2023-03-21T19:58:53.461Z,99959.69
2023-03-21T20:01:20.524Z,99953.38
2023-03-21T20:03:47.131Z,99955.56
2023-03-21T20:06:13.624Z,99956.06
2023-03-21T20:11:26.595Z,99951.31
2023-03-21T20:13:53.145Z,99960.25
2023-03-21T20:16:20.449Z,99959.84
2023-03-21T20:18:47.431Z,99959.31
2023-03-21T20:21:18.041Z,99957.63
2023-03-21T20:23:48.149Z,99960.97
2023-03-21T20:26:15.002Z,99970.59
2023-03-21T20:28:56.141Z,99973.94
2023-03-21T20:31:27.985Z,99971.50
2023-03-21T20:33:54.457Z,99965.19
2023-03-21T20:36:38.851Z,99966.78
2023-03-21T20:39:06.855Z,99969.28
2023-03-21T20:41:33.442Z,99975.78
2023-03-21T20:46:46.600Z,99975.56
2023-03-21T20:49:14.007Z,99978.19
2023-03-21T20:54:27.219Z,99984.34
2023-03-21T20:56:53.705Z,99983.22
2023-03-21T20:59:26.595Z,99992.03
2023-03-21T21:01:55.142Z,99986.38
2023-03-21T21:04:22.430Z,99984.03
2023-03-21T21:06:49.618Z,99975.66
2023-03-21T21:09:16.912Z,99988.59
2023-03-21T21:12:06.161Z,99979.75
2023-03-21T21:14:29.982Z,99979.91
2023-03-21T21:16:56.455Z,99983.78
2023-03-21T21:19:22.911Z,99983.00
2023-03-21T21:21:49.372Z,99988.91
2023-03-21T21:24:15.798Z,99989.66
2023-03-21T21:26:42.337Z,99984.44
2023-03-21T21:29:08.865Z,99981.72
2023-03-21T21:31:38.230Z,99983.69
2023-03-21T21:34:04.708Z,99981.38
2023-03-21T21:36:31.178Z,99984.97
2023-03-21T21:38:57.634Z,99987.94
2023-03-21T21:41:24.064Z,99988.34
2023-03-21T21:43:50.525Z,99995.03
2023-03-21T21:46:16.996Z,99987.97
2023-03-21T21:48:44.281Z,99993.97
2023-03-21T21:51:10.948Z,99990.56
2023-03-21T21:53:37.515Z,100002.53
2023-03-21T21:56:04.174Z,99992.88
2023-03-21T21:58:30.675Z,100008.13
2023-03-21T22:01:01.204Z,100008.25
2023-03-21T22:03:27.791Z,100006.41
2023-03-21T22:06:01.925Z,100005.75
2023-03-21T22:08:28.415Z,100011.72
2023-03-21T22:10:54.967Z,100005.31
2023-03-21T22:13:21.520Z,100007.34
2023-03-21T22:15:48.302Z,100010.19
2023-03-21T22:18:14.806Z,100015.47
2023-03-21T22:20:41.484Z,100007.78
2023-03-21T22:23:07.997Z,100004.53
2023-03-21T22:25:34.513Z,100007.53
2023-03-21T22:28:01.074Z,100009.97
2023-03-21T22:30:27.604Z,100009.09
2023-03-21T22:33:08.433Z,100015.91
2023-03-21T22:35:35.278Z,100008.09
2023-03-21T22:38:01.747Z,100006.38
2023-03-21T22:40:28.281Z,100002.97
2023-03-21T22:42:54.753Z,100007.47
2023-03-21T22:45:21.205Z,100014.34
2023-03-21T22:47:47.679Z,100019.47
2023-03-21T22:50:14.224Z,100014.59
2023-03-21T22:52:40.694Z,100012.75
2023-03-21T22:55:07.440Z,100018.88
2023-03-21T22:57:33.896Z,100015.75
2023-03-21T23:00:00.370Z,100020.03
2023-03-21T23:02:27.178Z,100004.34
2023-03-21T23:04:53.643Z,100017.19
2023-03-21T23:07:20.131Z,100003.06
2023-03-21T23:09:46.624Z,100008.78
2023-03-21T23:12:13.077Z,100007.19
2023-03-21T23:14:39.539Z,100005.75
2023-03-21T23:17:08.435Z,100015.44
2023-03-21T23:19:35.061Z,100009.44
2023-03-21T23:22:02.709Z,99997.75
2023-03-21T23:24:29.152Z,100009.59
2023-03-21T23:26:55.656Z,100005.03
2023-03-21T23:29:22.082Z,100006.44
2023-03-21T23:31:48.548Z,100003.72
2023-03-21T23:34:15.051Z,100010.69
2023-03-21T23:36:41.842Z,100003.13
2023-03-21T23:39:09.012Z,100003.81
2023-03-21T23:41:35.554Z,100012.63
2023-03-21T23:44:02.006Z,100007.53
2023-03-21T23:46:28.537Z,100012.81
2023-03-21T23:48:55.038Z,100011.84
2023-03-21T23:51:21.736Z,100017.53
2023-03-21T23:53:48.206Z,100013.81
2023-03-21T23:56:17.973Z,100016.44
2023-03-21T23:58:45.339Z,100018.50
